sensor_id;sensor_type;location;lat;lon;timestamp;temperature;humidity
52125;DHT22;38119;52.710;6.398;2023-03-16T00:00:50;4.60;99.90
52125;DHT22;38119;52.710;6.398;2023-03-16T00:03:15;4.60;99.90
52125;DHT22;38119;52.710;6.398;2023-03-16T00:05:45;4.70;99.90
52125;DHT22;38119;52.710;6.398;2023-03-16T00:08:11;4.60;99.90
52125;DHT22;38119;52.710;6.398;2023-03-16T00:10:37;4.70;99.90
52125;DHT22;38119;52.710;6.398;2023-03-16T00:13:05;4.60;99.90
52125;DHT22;38119;52.710;6.398;2023-03-16T00:15:31;4.70;99.90
52125;DHT22;38119;52.710;6.398;2023-03-16T00:17:56;4.70;99.90
52125;DHT22;38119;52.710;6.398;2023-03-16T00:20:22;4.70;99.90
52125;DHT22;38119;52.710;6.398;2023-03-16T00:22:47;4.70;99.90
52125;DHT22;38119;52.710;6.398;2023-03-16T00:25:13;4.70;99.90
52125;DHT22;38119;52.710;6.398;2023-03-16T00:27:39;4.70;99.90
52125;DHT22;38119;52.710;6.398;2023-03-16T00:30:06;4.70;99.90
52125;DHT22;38119;52.710;6.398;2023-03-16T00:32:34;4.70;99.90
52125;DHT22;38119;52.710;6.398;2023-03-16T00:35:01;4.70;99.90
52125;DHT22;38119;52.710;6.398;2023-03-16T00:37:28;4.70;99.90
52125;DHT22;38119;52.710;6.398;2023-03-16T00:39:54;4.70;99.90
52125;DHT22;38119;52.710;6.398;2023-03-16T00:42:21;4.70;99.90
52125;DHT22;38119;52.710;6.398;2023-03-16T00:44:58;4.70;99.90
52125;DHT22;38119;52.710;6.398;2023-03-16T00:47:30;4.70;99.90
52125;DHT22;38119;52.710;6.398;2023-03-16T00:49:57;4.70;99.90
52125;DHT22;38119;52.710;6.398;2023-03-16T00:52:24;4.70;99.90
52125;DHT22;38119;52.710;6.398;2023-03-16T00:54:52;4.70;99.90
52125;DHT22;38119;52.710;6.398;2023-03-16T00:57:19;4.70;99.90
52125;DHT22;38119;52.710;6.398;2023-03-16T00:59:46;4.70;99.90
52125;DHT22;38119;52.710;6.398;2023-03-16T01:02:12;4.70;99.90
52125;DHT22;38119;52.710;6.398;2023-03-16T01:04:41;4.60;99.90
52125;DHT22;38119;52.710;6.398;2023-03-16T01:07:08;4.60;99.90
52125;DHT22;38119;52.710;6.398;2023-03-16T01:09:35;4.60;99.90
52125;DHT22;38119;52.710;6.398;2023-03-16T01:12:10;4.60;99.90
52125;DHT22;38119;52.710;6.398;2023-03-16T01:14:36;4.70;99.90
52125;DHT22;38119;52.710;6.398;2023-03-16T01:17:06;4.70;99.90
52125;DHT22;38119;52.710;6.398;2023-03-16T01:19:34;4.70;99.90
52125;DHT22;38119;52.710;6.398;2023-03-16T01:22:01;4.60;99.90
52125;DHT22;38119;52.710;6.398;2023-03-16T01:24:27;4.60;99.90
52125;DHT22;38119;52.710;6.398;2023-03-16T01:26:52;4.60;99.90
52125;DHT22;38119;52.710;6.398;2023-03-16T01:29:18;4.60;99.90
52125;DHT22;38119;52.710;6.398;2023-03-16T01:31:44;4.50;99.90
52125;DHT22;38119;52.710;6.398;2023-03-16T01:34:10;4.60;99.90
52125;DHT22;38119;52.710;6.398;2023-03-16T01:36:41;4.60;99.90
52125;DHT22;38119;52.710;6.398;2023-03-16T01:39:06;4.50;99.90
52125;DHT22;38119;52.710;6.398;2023-03-16T01:41:32;4.50;99.90
52125;DHT22;38119;52.710;6.398;2023-03-16T01:43:57;4.60;99.90
52125;DHT22;38119;52.710;6.398;2023-03-16T01:46:27;4.60;99.90
52125;DHT22;38119;52.710;6.398;2023-03-16T01:52:21;4.60;99.90
52125;DHT22;38119;52.710;6.398;2023-03-16T01:54:28;4.60;99.90
52125;DHT22;38119;52.710;6.398;2023-03-16T01:57:03;4.60;99.90
52125;DHT22;38119;52.710;6.398;2023-03-16T01:59:34;4.60;99.90
52125;DHT22;38119;52.710;6.398;2023-03-16T02:02:02;4.60;99.90
52125;DHT22;38119;52.710;6.398;2023-03-16T02:04:33;4.60;99.90
52125;DHT22;38119;52.710;6.398;2023-03-16T02:07:02;4.60;99.90
52125;DHT22;38119;52.710;6.398;2023-03-16T02:09:30;4.70;99.90
52125;DHT22;38119;52.710;6.398;2023-03-16T02:11:57;4.70;99.90
52125;DHT22;38119;52.710;6.398;2023-03-16T02:14:23;4.60;99.90
52125;DHT22;38119;52.710;6.398;2023-03-16T02:16:49;4.70;99.90
52125;DHT22;38119;52.710;6.398;2023-03-16T02:19:44;4.70;99.90
52125;DHT22;38119;52.710;6.398;2023-03-16T02:22:11;4.70;99.90
52125;DHT22;38119;52.710;6.398;2023-03-16T02:24:38;4.70;99.90
52125;DHT22;38119;52.710;6.398;2023-03-16T02:27:10;4.70;99.90
52125;DHT22;38119;52.710;6.398;2023-03-16T02:29:56;4.70;99.90
52125;DHT22;38119;52.710;6.398;2023-03-16T02:32:25;4.70;99.90
52125;DHT22;38119;52.710;6.398;2023-03-16T02:34:52;4.70;99.90
52125;DHT22;38119;52.710;6.398;2023-03-16T02:37:19;4.70;99.90
52125;DHT22;38119;52.710;6.398;2023-03-16T02:39:44;4.70;99.90
52125;DHT22;38119;52.710;6.398;2023-03-16T02:42:12;4.70;99.90
52125;DHT22;38119;52.710;6.398;2023-03-16T02:44:38;4.80;99.90
52125;DHT22;38119;52.710;6.398;2023-03-16T02:47:41;4.70;99.90
52125;DHT22;38119;52.710;6.398;2023-03-16T02:50:06;4.70;99.90
52125;DHT22;38119;52.710;6.398;2023-03-16T02:52:36;4.70;99.90
52125;DHT22;38119;52.710;6.398;2023-03-16T02:55:04;4.70;99.90
52125;DHT22;38119;52.710;6.398;2023-03-16T02:57:30;4.70;99.90
52125;DHT22;38119;52.710;6.398;2023-03-16T02:59:56;4.70;99.90
52125;DHT22;38119;52.710;6.398;2023-03-16T03:02:22;4.70;99.90
52125;DHT22;38119;52.710;6.398;2023-03-16T03:04:48;4.70;99.90
52125;DHT22;38119;52.710;6.398;2023-03-16T03:07:14;4.80;99.90
52125;DHT22;38119;52.710;6.398;2023-03-16T03:09:40;4.80;99.90
52125;DHT22;38119;52.710;6.398;2023-03-16T03:12:08;4.70;99.90
52125;DHT22;38119;52.710;6.398;2023-03-16T03:14:34;4.80;99.90
52125;DHT22;38119;52.710;6.398;2023-03-16T03:17:03;4.80;99.90
52125;DHT22;38119;52.710;6.398;2023-03-16T03:19:28;4.80;99.90
52125;DHT22;38119;52.710;6.398;2023-03-16T03:21:54;4.80;99.90
52125;DHT22;38119;52.710;6.398;2023-03-16T03:24:21;4.80;99.90
52125;DHT22;38119;52.710;6.398;2023-03-16T03:26:47;4.80;99.90
52125;DHT22;38119;52.710;6.398;2023-03-16T03:29:12;4.70;99.90
52125;DHT22;38119;52.710;6.398;2023-03-16T03:31:38;4.80;99.90
52125;DHT22;38119;52.710;6.398;2023-03-16T03:34:04;4.80;99.90
52125;DHT22;38119;52.710;6.398;2023-03-16T03:36:32;4.80;99.90
52125;DHT22;38119;52.710;6.398;2023-03-16T03:38:57;4.80;99.90
52125;DHT22;38119;52.710;6.398;2023-03-16T03:41:23;4.80;99.90
52125;DHT22;38119;52.710;6.398;2023-03-16T03:43:48;4.80;99.90
52125;DHT22;38119;52.710;6.398;2023-03-16T03:46:14;4.80;99.90
52125;DHT22;38119;52.710;6.398;2023-03-16T03:48:39;4.80;99.90
52125;DHT22;38119;52.710;6.398;2023-03-16T03:51:05;4.70;99.90
52125;DHT22;38119;52.710;6.398;2023-03-16T03:53:31;4.60;99.90
52125;DHT22;38119;52.710;6.398;2023-03-16T03:55:57;4.70;99.90
52125;DHT22;38119;52.710;6.398;2023-03-16T03:58:22;4.60;99.90
52125;DHT22;38119;52.710;6.398;2023-03-16T04:00:48;4.80;99.90
52125;DHT22;38119;52.710;6.398;2023-03-16T04:03:14;4.80;99.90
52125;DHT22;38119;52.710;6.398;2023-03-16T04:05:40;4.60;99.90
52125;DHT22;38119;52.710;6.398;2023-03-16T04:08:06;4.60;99.90
52125;DHT22;38119;52.710;6.398;2023-03-16T04:10:31;4.80;99.90
52125;DHT22;38119;52.710;6.398;2023-03-16T04:12:58;4.70;99.90
52125;DHT22;38119;52.710;6.398;2023-03-16T04:15:24;4.60;99.90
52125;DHT22;38119;52.710;6.398;2023-03-16T04:17:50;4.80;99.90
52125;DHT22;38119;52.710;6.398;2023-03-16T04:20:19;4.70;99.90
52125;DHT22;38119;52.710;6.398;2023-03-16T04:22:47;4.80;99.90
52125;DHT22;38119;52.710;6.398;2023-03-16T04:25:15;4.80;99.90
52125;DHT22;38119;52.710;6.398;2023-03-16T04:27:41;4.80;99.90
52125;DHT22;38119;52.710;6.398;2023-03-16T04:30:10;4.70;99.90
52125;DHT22;38119;52.710;6.398;2023-03-16T04:32:36;4.70;99.90
52125;DHT22;38119;52.710;6.398;2023-03-16T04:35:03;4.80;99.90
52125;DHT22;38119;52.710;6.398;2023-03-16T04:37:29;4.80;99.90
52125;DHT22;38119;52.710;6.398;2023-03-16T04:39:55;4.60;99.90
52125;DHT22;38119;52.710;6.398;2023-03-16T04:42:20;4.60;99.90
52125;DHT22;38119;52.710;6.398;2023-03-16T04:44:46;4.60;99.90
52125;DHT22;38119;52.710;6.398;2023-03-16T04:47:13;4.60;99.90
52125;DHT22;38119;52.710;6.398;2023-03-16T04:49:41;4.70;99.90
52125;DHT22;38119;52.710;6.398;2023-03-16T04:52:07;4.70;99.90
52125;DHT22;38119;52.710;6.398;2023-03-16T04:54:33;4.80;99.90
52125;DHT22;38119;52.710;6.398;2023-03-16T04:56:59;6.10;99.90
52125;DHT22;38119;52.710;6.398;2023-03-16T04:59:25;4.70;99.90
52125;DHT22;38119;52.710;6.398;2023-03-16T05:01:51;5.00;99.90
52125;DHT22;38119;52.710;6.398;2023-03-16T05:04:18;4.60;99.90
52125;DHT22;38119;52.710;6.398;2023-03-16T05:06:44;4.60;99.90
52125;DHT22;38119;52.710;6.398;2023-03-16T05:09:10;4.70;99.90
52125;DHT22;38119;52.710;6.398;2023-03-16T05:11:36;4.70;99.90
52125;DHT22;38119;52.710;6.398;2023-03-16T05:14:02;4.70;99.90
52125;DHT22;38119;52.710;6.398;2023-03-16T05:16:28;4.70;99.90
52125;DHT22;38119;52.710;6.398;2023-03-16T05:18:57;4.70;99.90
52125;DHT22;38119;52.710;6.398;2023-03-16T05:21:23;4.70;99.90
52125;DHT22;38119;52.710;6.398;2023-03-16T05:23:48;4.80;99.90
52125;DHT22;38119;52.710;6.398;2023-03-16T05:26:14;4.70;99.90
52125;DHT22;38119;52.710;6.398;2023-03-16T05:28:40;4.70;99.90
52125;DHT22;38119;52.710;6.398;2023-03-16T05:31:07;4.70;99.90
52125;DHT22;38119;52.710;6.398;2023-03-16T05:33:33;4.70;99.90
52125;DHT22;38119;52.710;6.398;2023-03-16T05:35:58;4.70;99.90
52125;DHT22;38119;52.710;6.398;2023-03-16T05:38:24;4.70;99.90
52125;DHT22;38119;52.710;6.398;2023-03-16T05:40:52;4.60;99.90
52125;DHT22;38119;52.710;6.398;2023-03-16T05:43:20;4.60;99.90
52125;DHT22;38119;52.710;6.398;2023-03-16T05:45:46;4.60;99.90
52125;DHT22;38119;52.710;6.398;2023-03-16T05:48:12;4.70;99.90
52125;DHT22;38119;52.710;6.398;2023-03-16T05:50:39;4.60;99.90
52125;DHT22;38119;52.710;6.398;2023-03-16T05:53:06;5.50;99.90
52125;DHT22;38119;52.710;6.398;2023-03-16T05:55:33;4.60;99.90
52125;DHT22;38119;52.710;6.398;2023-03-16T05:57:59;4.60;99.90
52125;DHT22;38119;52.710;6.398;2023-03-16T06:00:25;4.60;99.90
52125;DHT22;38119;52.710;6.398;2023-03-16T06:02:52;5.40;99.90
52125;DHT22;38119;52.710;6.398;2023-03-16T06:05:19;4.60;99.90
52125;DHT22;38119;52.710;6.398;2023-03-16T06:07:46;4.60;99.90
52125;DHT22;38119;52.710;6.398;2023-03-16T06:10:12;4.60;99.90
52125;DHT22;38119;52.710;6.398;2023-03-16T06:12:39;4.60;99.90
52125;DHT22;38119;52.710;6.398;2023-03-16T06:15:06;4.60;99.90
52125;DHT22;38119;52.710;6.398;2023-03-16T06:17:32;4.60;99.90
52125;DHT22;38119;52.710;6.398;2023-03-16T06:19:58;4.70;99.90
52125;DHT22;38119;52.710;6.398;2023-03-16T06:22:24;4.50;99.90
52125;DHT22;38119;52.710;6.398;2023-03-16T06:24:50;4.70;99.90
52125;DHT22;38119;52.710;6.398;2023-03-16T06:27:17;4.70;99.90
52125;DHT22;38119;52.710;6.398;2023-03-16T06:29:45;4.70;99.90
52125;DHT22;38119;52.710;6.398;2023-03-16T06:32:11;4.70;99.90
52125;DHT22;38119;52.710;6.398;2023-03-16T06:34:37;4.70;99.90
52125;DHT22;38119;52.710;6.398;2023-03-16T06:37:03;4.80;99.90
52125;DHT22;38119;52.710;6.398;2023-03-16T06:39:29;4.80;99.90
52125;DHT22;38119;52.710;6.398;2023-03-16T06:41:55;4.80;99.90
52125;DHT22;38119;52.710;6.398;2023-03-16T06:44:21;4.70;99.90
52125;DHT22;38119;52.710;6.398;2023-03-16T06:46:46;4.80;99.90
52125;DHT22;38119;52.710;6.398;2023-03-16T06:49:12;4.90;99.90
52125;DHT22;38119;52.710;6.398;2023-03-16T06:51:37;4.90;99.90
52125;DHT22;38119;52.710;6.398;2023-03-16T06:54:03;4.90;99.90
52125;DHT22;38119;52.710;6.398;2023-03-16T06:56:28;5.00;99.90
52125;DHT22;38119;52.710;6.398;2023-03-16T06:58:56;5.00;99.90
52125;DHT22;38119;52.710;6.398;2023-03-16T07:01:21;5.00;99.90
52125;DHT22;38119;52.710;6.398;2023-03-16T07:03:47;5.00;99.90
52125;DHT22;38119;52.710;6.398;2023-03-16T07:06:13;5.00;99.90
52125;DHT22;38119;52.710;6.398;2023-03-16T07:08:38;5.20;99.90
52125;DHT22;38119;52.710;6.398;2023-03-16T07:11:04;5.00;99.90
52125;DHT22;38119;52.710;6.398;2023-03-16T07:13:30;5.10;99.90
52125;DHT22;38119;52.710;6.398;2023-03-16T07:15:55;5.10;99.90
52125;DHT22;38119;52.710;6.398;2023-03-16T07:18:21;5.10;99.90
52125;DHT22;38119;52.710;6.398;2023-03-16T07:20:47;5.10;99.90
52125;DHT22;38119;52.710;6.398;2023-03-16T07:23:12;5.00;99.90
52125;DHT22;38119;52.710;6.398;2023-03-16T07:25:38;5.10;99.90
52125;DHT22;38119;52.710;6.398;2023-03-16T07:28:04;5.20;99.90
52125;DHT22;38119;52.710;6.398;2023-03-16T07:30:30;5.20;99.90
52125;DHT22;38119;52.710;6.398;2023-03-16T07:32:55;5.10;99.90
52125;DHT22;38119;52.710;6.398;2023-03-16T07:35:21;5.30;99.90
52125;DHT22;38119;52.710;6.398;2023-03-16T07:37:47;5.30;99.90
52125;DHT22;38119;52.710;6.398;2023-03-16T07:40:14;5.30;99.90
52125;DHT22;38119;52.710;6.398;2023-03-16T07:42:40;5.30;99.90
52125;DHT22;38119;52.710;6.398;2023-03-16T07:45:07;5.40;99.90
52125;DHT22;38119;52.710;6.398;2023-03-16T07:47:33;5.40;99.90
52125;DHT22;38119;52.710;6.398;2023-03-16T07:50:00;5.30;99.90
52125;DHT22;38119;52.710;6.398;2023-03-16T07:52:26;5.30;99.90
52125;DHT22;38119;52.710;6.398;2023-03-16T07:54:51;5.30;99.90
52125;DHT22;38119;52.710;6.398;2023-03-16T07:57:17;5.30;99.90
52125;DHT22;38119;52.710;6.398;2023-03-16T07:59:43;5.30;99.90
52125;DHT22;38119;52.710;6.398;2023-03-16T08:02:13;5.40;99.90
52125;DHT22;38119;52.710;6.398;2023-03-16T08:04:44;5.40;99.90
52125;DHT22;38119;52.710;6.398;2023-03-16T08:07:12;5.40;99.90
52125;DHT22;38119;52.710;6.398;2023-03-16T08:09:41;5.40;99.90
52125;DHT22;38119;52.710;6.398;2023-03-16T08:12:07;5.40;99.90
52125;DHT22;38119;52.710;6.398;2023-03-16T08:14:33;5.40;99.90
52125;DHT22;38119;52.710;6.398;2023-03-16T08:17:08;5.40;99.90
52125;DHT22;38119;52.710;6.398;2023-03-16T08:19:33;5.40;99.90
52125;DHT22;38119;52.710;6.398;2023-03-16T08:21:59;5.40;99.90
52125;DHT22;38119;52.710;6.398;2023-03-16T08:24:28;5.40;99.90
52125;DHT22;38119;52.710;6.398;2023-03-16T08:26:55;5.40;99.90
52125;DHT22;38119;52.710;6.398;2023-03-16T08:29:22;5.40;99.90
52125;DHT22;38119;52.710;6.398;2023-03-16T08:31:49;5.30;99.90
52125;DHT22;38119;52.710;6.398;2023-03-16T08:34:15;5.30;99.90
52125;DHT22;38119;52.710;6.398;2023-03-16T08:36:42;5.40;99.90
52125;DHT22;38119;52.710;6.398;2023-03-16T08:39:08;5.40;99.90
52125;DHT22;38119;52.710;6.398;2023-03-16T08:41:34;5.50;99.90
52125;DHT22;38119;52.710;6.398;2023-03-16T08:44:03;5.40;99.90
52125;DHT22;38119;52.710;6.398;2023-03-16T08:46:29;6.30;99.90
52125;DHT22;38119;52.710;6.398;2023-03-16T08:48:55;5.60;99.90
52125;DHT22;38119;52.710;6.398;2023-03-16T08:51:27;5.60;99.90
52125;DHT22;38119;52.710;6.398;2023-03-16T08:53:54;5.50;99.90
52125;DHT22;38119;52.710;6.398;2023-03-16T08:56:19;5.50;99.90
52125;DHT22;38119;52.710;6.398;2023-03-16T08:58:46;5.50;99.90
52125;DHT22;38119;52.710;6.398;2023-03-16T09:01:13;5.50;99.90
52125;DHT22;38119;52.710;6.398;2023-03-16T09:03:40;5.50;99.90
52125;DHT22;38119;52.710;6.398;2023-03-16T09:06:12;5.50;99.90
52125;DHT22;38119;52.710;6.398;2023-03-16T09:08:40;5.70;99.90
52125;DHT22;38119;52.710;6.398;2023-03-16T09:11:10;5.70;99.90
52125;DHT22;38119;52.710;6.398;2023-03-16T09:13:38;5.70;99.90
52125;DHT22;38119;52.710;6.398;2023-03-16T09:16:07;5.70;99.90
52125;DHT22;38119;52.710;6.398;2023-03-16T09:18:35;4.80;99.90
52125;DHT22;38119;52.710;6.398;2023-03-16T09:21:05;5.60;99.90
52125;DHT22;38119;52.710;6.398;2023-03-16T09:23:32;5.60;99.90
52125;DHT22;38119;52.710;6.398;2023-03-16T09:26:04;5.80;99.90
52125;DHT22;38119;52.710;6.398;2023-03-16T09:28:30;5.80;99.90
52125;DHT22;38119;52.710;6.398;2023-03-16T09:30:59;5.70;99.90
52125;DHT22;38119;52.710;6.398;2023-03-16T09:33:26;5.80;99.90
52125;DHT22;38119;52.710;6.398;2023-03-16T09:35:59;5.70;99.90
52125;DHT22;38119;52.710;6.398;2023-03-16T09:38:25;5.90;99.90
52125;DHT22;38119;52.710;6.398;2023-03-16T09:41:01;5.80;99.90
52125;DHT22;38119;52.710;6.398;2023-03-16T09:46:10;5.90;99.90
52125;DHT22;38119;52.710;6.398;2023-03-16T09:48:41;5.80;99.90
52125;DHT22;38119;52.710;6.398;2023-03-16T09:51:18;5.80;99.90
52125;DHT22;38119;52.710;6.398;2023-03-16T09:53:45;6.00;99.90
52125;DHT22;38119;52.710;6.398;2023-03-16T09:56:26;5.90;99.90
52125;DHT22;38119;52.710;6.398;2023-03-16T09:58:54;6.00;99.90
52125;DHT22;38119;52.710;6.398;2023-03-16T10:12:28;6.00;99.90
52125;DHT22;38119;52.710;6.398;2023-03-16T10:15:07;6.10;99.90
52125;DHT22;38119;52.710;6.398;2023-03-16T10:17:53;6.10;99.90
52125;DHT22;38119;52.710;6.398;2023-03-16T10:20:23;6.20;99.90
52125;DHT22;38119;52.710;6.398;2023-03-16T10:22:51;6.20;99.90
52125;DHT22;38119;52.710;6.398;2023-03-16T10:25:45;7.40;99.90
52125;DHT22;38119;52.710;6.398;2023-03-16T10:28:20;6.30;99.90
52125;DHT22;38119;52.710;6.398;2023-03-16T10:30:48;6.40;99.90
52125;DHT22;38119;52.710;6.398;2023-03-16T10:33:24;6.30;99.90
52125;DHT22;38119;52.710;6.398;2023-03-16T10:40:52;6.50;99.90
52125;DHT22;38119;52.710;6.398;2023-03-16T10:43:20;6.40;99.90
52125;DHT22;38119;52.710;6.398;2023-03-16T10:45:48;6.50;99.90
52125;DHT22;38119;52.710;6.398;2023-03-16T10:48:20;6.50;99.90
52125;DHT22;38119;52.710;6.398;2023-03-16T10:50:48;6.50;99.90
52125;DHT22;38119;52.710;6.398;2023-03-16T10:53:18;6.60;99.90
52125;DHT22;38119;52.710;6.398;2023-03-16T10:55:46;7.60;99.90
52125;DHT22;38119;52.710;6.398;2023-03-16T10:58:22;6.50;99.90
52125;DHT22;38119;52.710;6.398;2023-03-16T11:00:51;6.60;99.90
52125;DHT22;38119;52.710;6.398;2023-03-16T11:03:23;6.60;99.90
52125;DHT22;38119;52.710;6.398;2023-03-16T11:06:01;6.60;99.90
52125;DHT22;38119;52.710;6.398;2023-03-16T11:08:34;6.60;99.90
52125;DHT22;38119;52.710;6.398;2023-03-16T11:11:16;7.50;99.90
52125;DHT22;38119;52.710;6.398;2023-03-16T11:13:46;7.00;99.90
52125;DHT22;38119;52.710;6.398;2023-03-16T11:16:37;6.80;99.90
52125;DHT22;38119;52.710;6.398;2023-03-16T11:19:26;6.90;99.90
52125;DHT22;38119;52.710;6.398;2023-03-16T11:22:04;6.90;99.90
52125;DHT22;38119;52.710;6.398;2023-03-16T11:27:23;7.60;99.90
52125;DHT22;38119;52.710;6.398;2023-03-16T11:32:38;7.20;99.90
52125;DHT22;38119;52.710;6.398;2023-03-16T11:35:14;7.20;99.90
52125;DHT22;38119;52.710;6.398;2023-03-16T11:38:07;7.30;99.90
52125;DHT22;38119;52.710;6.398;2023-03-16T11:43:13;7.30;99.90
52125;DHT22;38119;52.710;6.398;2023-03-16T11:56:52;7.80;99.90
52125;DHT22;38119;52.710;6.398;2023-03-16T12:07:25;8.20;99.90
52125;DHT22;38119;52.710;6.398;2023-03-16T12:18:11;8.30;99.90
52125;DHT22;38119;52.710;6.398;2023-03-16T12:20:47;8.20;99.90
52125;DHT22;38119;52.710;6.398;2023-03-16T12:23:24;8.30;99.90
52125;DHT22;38119;52.710;6.398;2023-03-16T12:25:52;8.30;99.90
52125;DHT22;38119;52.710;6.398;2023-03-16T12:28:24;9.60;99.90
52125;DHT22;38119;52.710;6.398;2023-03-16T12:38:52;8.40;99.90
52125;DHT22;38119;52.710;6.398;2023-03-16T12:44:18;8.40;99.90
52125;DHT22;38119;52.710;6.398;2023-03-16T12:47:22;9.30;99.90
52125;DHT22;38119;52.710;6.398;2023-03-16T12:49:52;8.50;99.90
52125;DHT22;38119;52.710;6.398;2023-03-16T12:52:18;8.40;99.90
52125;DHT22;38119;52.710;6.398;2023-03-16T12:54:52;8.40;99.90
52125;DHT22;38119;52.710;6.398;2023-03-16T12:57:23;8.50;99.90
52125;DHT22;38119;52.710;6.398;2023-03-16T12:59:54;8.50;99.90
52125;DHT22;38119;52.710;6.398;2023-03-16T13:02:30;8.50;99.90
52125;DHT22;38119;52.710;6.398;2023-03-16T13:05:10;8.60;99.90
52125;DHT22;38119;52.710;6.398;2023-03-16T13:07:48;8.70;99.90
52125;DHT22;38119;52.710;6.398;2023-03-16T13:10:14;8.80;99.90
52125;DHT22;38119;52.710;6.398;2023-03-16T13:12:42;8.80;99.90
52125;DHT22;38119;52.710;6.398;2023-03-16T13:18:05;9.00;99.90
52125;DHT22;38119;52.710;6.398;2023-03-16T13:25:44;9.60;99.90
52125;DHT22;38119;52.710;6.398;2023-03-16T13:28:12;9.80;99.90
52125;DHT22;38119;52.710;6.398;2023-03-16T13:30:47;9.60;99.90
52125;DHT22;38119;52.710;6.398;2023-03-16T13:33:20;9.80;99.90
52125;DHT22;38119;52.710;6.398;2023-03-16T13:35:50;10.00;99.90
52125;DHT22;38119;52.710;6.398;2023-03-16T13:38:18;10.10;99.90
52125;DHT22;38119;52.710;6.398;2023-03-16T13:40:48;10.10;99.90
52125;DHT22;38119;52.710;6.398;2023-03-16T13:43:16;11.20;99.90
52125;DHT22;38119;52.710;6.398;2023-03-16T13:45:42;10.40;99.90
52125;DHT22;38119;52.710;6.398;2023-03-16T13:48:13;10.80;99.90
52125;DHT22;38119;52.710;6.398;2023-03-16T13:50:40;10.50;99.90
52125;DHT22;38119;52.710;6.398;2023-03-16T13:53:23;11.30;99.90
52125;DHT22;38119;52.710;6.398;2023-03-16T13:55:49;10.60;99.90
52125;DHT22;38119;52.710;6.398;2023-03-16T14:00:46;10.60;99.90
52125;DHT22;38119;52.710;6.398;2023-03-16T14:03:18;10.60;99.90
52125;DHT22;38119;52.710;6.398;2023-03-16T14:05:47;10.70;99.90
52125;DHT22;38119;52.710;6.398;2023-03-16T14:08:22;10.50;99.90
52125;DHT22;38119;52.710;6.398;2023-03-16T14:10:49;10.60;99.90
52125;DHT22;38119;52.710;6.398;2023-03-16T14:13:22;10.60;99.90
52125;DHT22;38119;52.710;6.398;2023-03-16T14:15:53;10.50;99.90
52125;DHT22;38119;52.710;6.398;2023-03-16T14:18:22;11.30;99.90
52125;DHT22;38119;52.710;6.398;2023-03-16T14:20:53;11.60;99.90
52125;DHT22;38119;52.710;6.398;2023-03-16T14:23:30;9.60;99.90
52125;DHT22;38119;52.710;6.398;2023-03-16T14:25:58;10.70;99.90
52125;DHT22;38119;52.710;6.398;2023-03-16T14:28:31;11.20;99.90
52125;DHT22;38119;52.710;6.398;2023-03-16T14:31:04;12.10;99.90
52125;DHT22;38119;52.710;6.398;2023-03-16T14:33:33;10.90;99.90
52125;DHT22;38119;52.710;6.398;2023-03-16T14:36:16;11.00;99.90
52125;DHT22;38119;52.710;6.398;2023-03-16T14:38:43;11.10;99.90
52125;DHT22;38119;52.710;6.398;2023-03-16T14:41:29;11.40;99.90
52125;DHT22;38119;52.710;6.398;2023-03-16T14:43:59;11.20;99.90
52125;DHT22;38119;52.710;6.398;2023-03-16T14:46:40;11.30;99.90
52125;DHT22;38119;52.710;6.398;2023-03-16T14:49:31;11.40;99.90
52125;DHT22;38119;52.710;6.398;2023-03-16T14:54:31;10.50;99.90
52125;DHT22;38119;52.710;6.398;2023-03-16T14:57:02;12.30;99.90
52125;DHT22;38119;52.710;6.398;2023-03-16T14:59:30;11.50;99.90
52125;DHT22;38119;52.710;6.398;2023-03-16T15:01:56;11.40;99.90
52125;DHT22;38119;52.710;6.398;2023-03-16T15:04:34;11.40;99.90
52125;DHT22;38119;52.710;6.398;2023-03-16T15:07:22;12.30;99.90
52125;DHT22;38119;52.710;6.398;2023-03-16T15:09:50;12.20;99.90
52125;DHT22;38119;52.710;6.398;2023-03-16T15:12:17;10.90;99.90
52125;DHT22;38119;52.710;6.398;2023-03-16T15:14:47;11.20;99.90
52125;DHT22;38119;52.710;6.398;2023-03-16T15:17:31;11.50;99.90
52125;DHT22;38119;52.710;6.398;2023-03-16T15:19:57;12.20;99.90
52125;DHT22;38119;52.710;6.398;2023-03-16T15:22:30;11.90;99.90
52125;DHT22;38119;52.710;6.398;2023-03-16T15:24:57;11.00;99.90
52125;DHT22;38119;52.710;6.398;2023-03-16T15:27:27;11.90;99.90
52125;DHT22;38119;52.710;6.398;2023-03-16T15:29:55;11.80;99.90
52125;DHT22;38119;52.710;6.398;2023-03-16T15:32:22;11.90;99.90
52125;DHT22;38119;52.710;6.398;2023-03-16T15:34:48;11.50;99.90
52125;DHT22;38119;52.710;6.398;2023-03-16T15:37:18;11.00;99.90
52125;DHT22;38119;52.710;6.398;2023-03-16T15:39:47;10.90;99.90
52125;DHT22;38119;52.710;6.398;2023-03-16T15:42:15;10.90;99.90
52125;DHT22;38119;52.710;6.398;2023-03-16T15:44:42;10.80;99.90
52125;DHT22;38119;52.710;6.398;2023-03-16T15:47:08;10.90;99.90
52125;DHT22;38119;52.710;6.398;2023-03-16T15:49:35;10.90;99.90
52125;DHT22;38119;52.710;6.398;2023-03-16T15:52:01;10.80;99.90
52125;DHT22;38119;52.710;6.398;2023-03-16T15:54:27;10.80;99.90
52125;DHT22;38119;52.710;6.398;2023-03-16T15:56:56;10.70;99.90
52125;DHT22;38119;52.710;6.398;2023-03-16T15:59:23;10.70;99.90
52125;DHT22;38119;52.710;6.398;2023-03-16T16:01:49;11.20;99.90
52125;DHT22;38119;52.710;6.398;2023-03-16T16:04:18;10.90;99.90
52125;DHT22;38119;52.710;6.398;2023-03-16T16:06:45;10.90;99.90
52125;DHT22;38119;52.710;6.398;2023-03-16T16:09:12;10.80;99.90
52125;DHT22;38119;52.710;6.398;2023-03-16T16:11:39;10.90;99.90
52125;DHT22;38119;52.710;6.398;2023-03-16T16:14:11;10.90;99.90
52125;DHT22;38119;52.710;6.398;2023-03-16T16:16:38;11.90;99.90
52125;DHT22;38119;52.710;6.398;2023-03-16T16:19:05;11.60;99.90
52125;DHT22;38119;52.710;6.398;2023-03-16T16:21:30;11.40;99.90
52125;DHT22;38119;52.710;6.398;2023-03-16T16:23:57;11.70;99.90
52125;DHT22;38119;52.710;6.398;2023-03-16T16:26:24;10.80;99.90
52125;DHT22;38119;52.710;6.398;2023-03-16T16:28:51;10.70;99.90
52125;DHT22;38119;52.710;6.398;2023-03-16T16:31:19;10.80;99.90
52125;DHT22;38119;52.710;6.398;2023-03-16T16:33:46;10.70;99.90
52125;DHT22;38119;52.710;6.398;2023-03-16T16:36:13;10.70;99.90
52125;DHT22;38119;52.710;6.398;2023-03-16T16:38:43;11.30;99.90
52125;DHT22;38119;52.710;6.398;2023-03-16T16:41:22;10.50;99.90
52125;DHT22;38119;52.710;6.398;2023-03-16T16:43:49;10.10;99.90
52125;DHT22;38119;52.710;6.398;2023-03-16T16:46:21;10.30;99.90
52125;DHT22;38119;52.710;6.398;2023-03-16T16:48:52;10.30;99.90
52125;DHT22;38119;52.710;6.398;2023-03-16T16:51:21;10.30;99.90
52125;DHT22;38119;52.710;6.398;2023-03-16T16:53:48;10.00;99.90
52125;DHT22;38119;52.710;6.398;2023-03-16T16:56:15;11.10;99.90
52125;DHT22;38119;52.710;6.398;2023-03-16T16:58:43;10.00;99.90
52125;DHT22;38119;52.710;6.398;2023-03-16T17:01:15;10.00;99.90
52125;DHT22;38119;52.710;6.398;2023-03-16T17:03:44;11.10;99.90
52125;DHT22;38119;52.710;6.398;2023-03-16T17:06:16;10.00;99.90
52125;DHT22;38119;52.710;6.398;2023-03-16T17:08:43;10.00;99.90
52125;DHT22;38119;52.710;6.398;2023-03-16T17:11:18;10.50;99.90
52125;DHT22;38119;52.710;6.398;2023-03-16T17:13:45;9.80;99.90